AirNav   Duncan Aviation - Near you to keep you flying
 
 724 users online  

25FL Connell's Wahoo Airport
Bushnell, Florida, USA

GOING TO BUSHNELL?


FAA INFORMATION EFFECTIVE 09 SEPTEMBER 2021

Location

FAA Identifier: 25FL
Lat/Long: 28-37-55.0000N 082-09-28.0000W
28-37.916667N 082-09.466667W
28.6319444,-82.1577778
(estimated)
Elevation: 65 ft. / 20 m (estimated)
From city: 3 miles NE of BUSHNELL, FL
Time zone: UTC -4 (UTC -5 during Standard Time)
Zip code: 33513

Airport Operations

Airport use: Private use. Permission required prior to landing
Activation date: 03/2004
Control tower: no
ARTCC: MIAMI CENTER
FSS: SAINT PETERSBURG FLIGHT SERVICE STATION
Attendance: UNATNDD
Wind indicator: yes
Segmented circle: no

Airport Communications

WX AWOS-3 at INF (13 nm NW): 119.975 (352-560-6012)
WX ASOS at BKV (18 nm SW): 134.725 (352-799-5881)

Nearby radio navigation aids

VOR radial/distance  VOR name  Freq  Var
OCFr174/32.9OCALA VORTAC113.7000E
LALr348/39.5LAKELAND VORTAC116.0001E

Airport Services

Runway Information

Runway 4/22

Dimensions: 3000 x 100 ft. / 914 x 30 m
Surface: turf
RUNWAY 4  RUNWAY 22
Traffic pattern: leftleft

Airport Ownership and Management from official FAA records

Ownership: Privately-owned
Owner: JAMES L. CONNELL
8400 CR 614A
BUSHNELL, FL 33513
Phone 352-457-1838
Manager: PATRICIA ANN CONNELL
8400 CR 614A
BUSHNELL, FL 33513
Phone 352-457-1808

Airport Operational Statistics

Aircraft based on the field: 3
Single engine airplanes: 3
    

Additional Remarks

FOR CD CTC TAMPA APCH AT 813-878-2528

Instrument Procedures

There are no published instrument procedures at 25FL.

Some nearby airports with instrument procedures:

KINF - Inverness Airport (13 nm NW)
KBKV - Brooksville-Tampa Bay Regional Airport (18 nm SW)
KLEE - Leesburg International Airport (22 nm NE)
KZPH - Zephyrhills Municipal Airport (24 nm S)
KCGC - Crystal River Airport-Captain Tom Davis Field (26 nm NW)
 
Loc | Ops | Rwys | IFR | FBO | Links
Com | Nav | Svcs | Stats | Notes


 
Area around 25FL (Connell's Wahoo Airport)
 
Road maps at: MapQuest Bing Google
 
Aerial photo
No photo
 
Sectional chart

 
Airport distance calculator
Flying to Connell's Wahoo Airport? Find the distance to fly.

From to 25FL

Sunrise and sunset
Times for 21-Sep-2021
 Local
(UTC-4)
 Zulu
(UTC)
Morning civil twilight06:5410:54
Sunrise07:1811:18
Sunset19:2623:26
Evening civil twilight19:4923:49

Current date and time
Zulu (UTC)  22-Sep-2021 03:59:33
Local (UTC-4)  21-Sep-2021 23:59:33
 
METAR
KINF 
13nm NW 
220355Z AUTO 00000KT 10SM CLR 23/23 A3002 RMK AO2 P0001
KBKV 
18nm SW 
220353Z AUTO 16003KT 10SM BKN003 24/23 A3001 RMK AO2 SLP161 T02390233
KLEE 
21nm NE 
220353Z AUTO 00000KT 10SM CLR 24/23 A3003 RMK AO2 SLP166 T02440233
KZPH 
24nm S 
220335Z AUTO 00000KT 7SM CLR 23/23 A3002 RMK A02 T02320228
KCGC 
26nm NW 
220355Z AUTO 00000KT 10SM CLR 23/22 A3001 RMK AO2
TAF
KLEE 
21nm NE 
211749Z 2118/2218 17006KT P6SM SCT025 SCT050 FM212000 12007KT P6SM VCTS SCT030CB SCT120 FM220000 VRB03KT P6SM FEW035 SCT120 FM221700 23006KT P6SM VCSH SCT025 SCT050 BKN250
NOTAMs
Click for the latest NOTAMs
NOTAMs are issued by the DoD/FAA and will open in a separate window not controlled by AirNav.

 

 
 

Would you like to see your business listed on this page?

 If your business provides an interesting product or service to pilots, flight crews, aircraft, or users of the Connell's Wahoo Airport, you should consider listing it here.  To start the listing process, click on the button below
 
Add a business
 

Other Pages about Connell's Wahoo Airport

Update a link
 
Copyright © AirNav, LLC. All rights reserved. Privacy Policy  Contact